Time;durP1;ratioP1;P1;durP2;ratioP2;P2;SDS_P1;SDS_P2;PMS_P1;PMS_P2;Temp;Humidity;BMP_temperature;BMP_pressure;BME280_temperature;BME280_humidity;BME280_pressure;Samples;Min_cycle;Max_cycle;Signal;HPM_P1;HPM_P2
2022/08/13 00:01:41;;;;;;;8.40;7.60;;;;;;;20.80;77.87;100704.09;107234;1281;25321;-72
2022/08/13 00:04:12;;;;;;;8.00;7.20;;;;;;;20.82;77.96;100708.11;105814;1282;25439;-73
2022/08/13 00:07:08;;;;;;;9.40;7.50;;;;;;;20.83;77.91;100713.77;105420;1282;25323;-74
2022/08/13 00:09:39;;;;;;;7.70;7.00;;;;;;;20.84;77.96;100721.59;104994;1282;22756;-72
2022/08/13 00:15:07;;;;;;;10.20;6.80;;;;;;;20.87;77.96;100719.48;105085;1282;24466;-73
2022/08/13 00:17:40;;;;;;;8.20;7.50;;;;;;;20.87;77.80;100719.52;105158;1282;25321;-72
2022/08/13 00:20:33;;;;;;;7.60;6.90;;;;;;;20.85;77.77;100719.42;105158;1281;22558;-76
2022/08/13 00:23:07;;;;;;;11.10;7.40;;;;;;;20.82;77.78;100717.05;104985;1282;22763;-74
2022/08/13 00:25:52;;;;;;;10.70;7.40;;;;;;;20.79;77.86;100712.90;105119;1281;22540;-73
2022/08/13 00:28:22;;;;;;;7.60;6.90;;;;;;;20.77;77.92;100707.77;105354;1281;23847;-73
2022/08/13 00:30:51;;;;;;;9.10;8.10;;;;;;;20.76;78.10;100704.64;105413;1281;22669;-74
2022/08/13 00:33:21;;;;;;;9.00;8.10;;;;;;;20.75;78.06;100697.66;105411;1281;22557;-75
2022/08/13 00:36:08;;;;;;;7.50;6.80;;;;;;;20.70;78.08;100697.17;105393;1281;22551;-76
2022/08/13 00:38:36;;;;;;;8.60;7.40;;;;;;;20.69;78.18;100689.53;105155;1281;25239;-77
2022/08/13 00:41:07;;;;;;;9.20;8.30;;;;;;;20.68;78.14;100689.07;105192;1282;25230;-77
2022/08/13 00:43:47;;;;;;;8.00;7.30;;;;;;;20.66;78.46;100684.33;105043;1281;22565;-76
2022/08/13 00:46:14;;;;;;;8.20;7.40;;;;;;;20.66;78.48;100677.35;105405;1281;22541;-73
2022/08/13 00:48:43;;;;;;;7.40;6.70;;;;;;;20.65;78.38;100676.09;104999;1282;22570;-69
2022/08/13 00:51:26;;;;;;;7.40;6.70;;;;;;;20.66;78.39;100673.23;104973;1282;23691;-72
2022/08/13 00:54:16;;;;;;;8.90;7.60;;;;;;;20.66;78.43;100675.34;104105;1282;1264598;-72
2022/08/13 00:56:44;;;;;;;8.90;7.60;;;;;;;20.66;78.39;100677.52;105328;1281;22553;-74
2022/08/13 00:59:13;;;;;;;7.40;6.70;;;;;;;20.64;78.25;100674.59;105093;1282;25036;-75
2022/08/13 01:01:45;;;;;;;7.80;6.70;;;;;;;20.65;78.22;100670.04;105355;1281;25315;-75
2022/08/13 01:04:19;;;;;;;8.40;6.80;;;;;;;20.65;78.07;100664.48;105102;1281;25052;-76
2022/08/13 01:06:56;;;;;;;8.00;6.20;;;;;;;20.64;78.27;100667.06;105366;1281;25164;-74
2022/08/13 01:09:29;;;;;;;9.90;6.60;;;;;;;20.63;78.02;100667.61;105918;1281;24360;-74
2022/08/13 01:12:20;;;;;;;7.90;7.20;;;;;;;20.64;78.15;100669.04;105420;1281;22744;-74
2022/08/13 01:14:55;;;;;;;6.80;6.20;;;;;;;20.63;78.24;100665.30;105244;1282;22558;-77
2022/08/13 01:17:23;;;;;;;6.40;5.90;;;;;;;20.66;78.07;100670.75;105362;1282;22715;-74
2022/08/13 01:19:56;;;;;;;8.00;6.40;;;;;;;20.65;77.81;100670.58;105436;1282;25228;-74
2022/08/13 01:22:29;;;;;;;6.80;6.20;;;;;;;20.61;77.95;100664.69;105292;1282;22738;-74
2022/08/13 01:25:05;;;;;;;7.80;6.30;;;;;;;20.59;78.00;100662.65;104990;1282;24004;-73
2022/08/13 01:27:36;;;;;;;6.90;6.30;;;;;;;20.58;77.95;100661.45;105114;1282;25261;-73
2022/08/13 01:30:09;;;;;;;6.90;6.20;;;;;;;20.55;78.00;100655.11;105336;1282;25393;-74
2022/08/13 01:32:37;;;;;;;6.50;5.80;;;;;;;20.56;77.97;100655.11;105221;1282;22538;-74
2022/08/13 01:35:21;;;;;;;6.60;5.90;;;;;;;20.58;77.86;100656.27;105249;1282;25332;-75
2022/08/13 01:37:54;;;;;;;7.70;6.70;;;;;;;20.58;77.94;100657.14;105099;1282;24440;-73
2022/08/13 01:40:31;;;;;;;8.00;6.40;;;;;;;20.58;77.96;100657.30;105012;1282;22554;-74
2022/08/13 01:43:00;;;;;;;6.60;5.90;;;;;;;20.56;77.95;100652.94;105168;1281;22538;-81
2022/08/13 01:45:49;;;;;;;7.90;5.90;;;;;;;20.57;77.98;100651.48;105209;1282;24243;-73
2022/08/13 01:51:36;;;;;;;9.00;6.70;;;;;;;20.51;78.07;100645.98;105189;1281;22556;-74
2022/08/13 01:54:11;;;;;;;7.80;6.90;;;;;;;20.51;77.99;100652.61;105301;1282;24530;-73
2022/08/13 01:57:06;;;;;;;6.90;6.00;;;;;;;20.51;78.04;100650.82;105440;1281;25491;-73
2022/08/13 01:59:35;;;;;;;6.30;5.80;;;;;;;20.51;78.06;100648.15;105408;1282;24331;-73
2022/08/13 02:02:24;;;;;;;6.80;6.20;;;;;;;20.51;78.08;100643.66;105416;1281;22566;-74
2022/08/13 02:05:01;;;;;;;6.70;5.90;;;;;;;20.51;77.97;100640.63;105136;1282;22540;-79
2022/08/13 02:07:30;;;;;;;7.20;6.20;;;;;;;20.48;77.96;100637.38;105453;1281;22700;-73
2022/08/13 02:10:21;;;;;;;6.10;5.60;;;;;;;20.43;77.85;100636.38;105244;1281;26729;-75
2022/08/13 02:12:51;;;;;;;9.00;6.00;;;;;;;20.39;77.97;100637.46;104902;1281;25367;-77
2022/08/13 02:15:20;;;;;;;7.30;5.80;;;;;;;20.31;77.99;100639.06;105452;1281;25341;-77
2022/08/13 02:18:17;;;;;;;6.60;6.00;;;;;;;20.26;78.26;100641.40;105507;1281;23117;-75
2022/08/13 02:20:52;;;;;;;6.70;6.00;;;;;;;20.28;78.39;100639.19;105015;1282;22619;-73
2022/08/13 02:23:25;;;;;;;7.60;5.40;;;;;;;20.30;78.37;100637.83;105161;1282;22708;-73
2022/08/13 02:26:13;;;;;;;7.60;5.80;;;;;;;20.36;78.33;100641.87;105155;1281;22697;-73
2022/08/13 02:28:41;;;;;;;7.70;6.30;;;;;;;20.38;78.36;100638.75;105476;1281;25086;-72
2022/08/13 02:31:09;;;;;;;6.40;5.80;;;;;;;20.40;78.09;100639.02;105307;1281;24317;-73
2022/08/13 02:33:56;;;;;;;7.40;6.00;;;;;;;20.40;78.21;100637.19;105279;1281;23160;-75
2022/08/13 02:36:25;;;;;;;11.20;5.60;;;;;;;20.42;78.20;100643.75;105358;1281;22534;-75
2022/08/13 02:39:01;;;;;;;7.00;5.40;;;;;;;20.43;78.21;100647.09;105386;1282;24816;-73
2022/08/13 02:41:42;;;;;;;6.10;5.50;;;;;;;20.46;78.20;100645.52;105187;1281;24294;-76
2022/08/13 02:44:20;;;;;;;7.00;6.40;;;;;;;20.51;78.36;100644.23;105589;1282;22703;-78
2022/08/13 02:47:01;;;;;;;6.20;5.50;;;;;;;20.54;78.17;100639.24;105393;1281;22539;-75
2022/08/13 02:49:28;;;;;;;6.40;5.50;;;;;;;20.53;78.12;100634.08;105015;1282;25245;-75
2022/08/13 02:52:11;;;;;;;6.60;5.90;;;;;;;20.50;77.82;100632.48;104923;1282;25249;-74
2022/08/13 02:54:44;;;;;;;6.50;5.60;;;;;;;20.46;77.86;100627.45;105011;1282;25267;-73
2022/08/13 02:57:21;;;;;;;7.00;5.70;;;;;;;20.41;78.15;100627.15;104923;1281;25263;-74
2022/08/13 02:59:49;;;;;;;8.50;6.30;;;;;;;20.39;78.15;100625.46;105017;1281;25384;-75
2022/08/13 03:02:38;;;;;;;7.10;5.40;;;;;;;20.37;78.21;100623.59;105228;1281;22644;-77
2022/08/13 03:05:09;;;;;;;6.70;5.40;;;;;;;20.31;78.06;100615.61;105294;1281;22557;-73
2022/08/13 03:07:46;;;;;;;5.90;5.30;;;;;;;20.33;78.09;100620.02;104881;1282;26528;-75
2022/08/13 03:10:23;;;;;;;6.30;5.50;;;;;;;20.29;77.94;100620.56;105242;1282;24069;-76
2022/08/13 03:13:19;;;;;;;5.40;4.90;;;;;;;20.26;78.07;100614.44;105174;1282;22765;-83
2022/08/13 03:15:53;;;;;;;5.90;5.10;;;;;;;20.19;77.88;100614.75;105285;1282;25321;-74
2022/08/13 03:18:29;;;;;;;6.60;5.30;;;;;;;20.16;78.09;100616.47;105361;1282;25263;-77
2022/08/13 03:21:22;;;;;;;6.30;5.60;;;;;;;20.17;78.10;100616.46;105333;1281;22754;-75
2022/08/13 03:24:12;;;;;;;7.50;5.70;;;;;;;20.13;78.08;100613.02;105146;1281;22655;-74
2022/08/13 03:26:49;;;;;;;6.30;5.30;;;;;;;20.10;78.19;100608.20;104963;1282;23957;-77
2022/08/13 03:29:21;;;;;;;5.00;4.60;;;;;;;20.07;78.18;100606.89;105379;1282;22569;-76
2022/08/13 03:32:08;;;;;;;7.30;5.60;;;;;;;20.05;78.28;100606.05;105095;1282;22707;-80
2022/08/13 03:34:39;;;;;;;5.90;5.30;;;;;;;20.02;78.40;100603.50;105289;1282;22570;-79
2022/08/13 03:37:09;;;;;;;6.00;5.40;;;;;;;20.03;78.49;100601.33;105568;1281;22538;-75
2022/08/13 03:39:36;;;;;;;6.10;5.40;;;;;;;20.02;78.43;100604.41;105270;1282;22559;-72
2022/08/13 03:42:07;;;;;;;7.40;6.00;;;;;;;19.95;78.22;100603.98;105288;1282;22592;-70
2022/08/13 03:44:37;;;;;;;8.20;5.40;;;;;;;19.90;78.59;100609.38;105602;1282;22671;-77
2022/08/13 03:47:04;;;;;;;6.60;6.00;;;;;;;19.90;78.42;100605.81;105536;1281;22550;-74
2022/08/13 03:49:51;;;;;;;7.50;6.20;;;;;;;19.87;78.59;100608.27;105288;1280;25264;-76
2022/08/13 03:52:19;;;;;;;6.50;5.80;;;;;;;19.86;78.69;100607.25;105669;1281;22575;-76
2022/08/13 03:55:01;;;;;;;7.90;5.60;;;;;;;19.85;78.57;100606.75;105280;1281;22542;-75
2022/08/13 03:57:29;;;;;;;6.60;6.00;;;;;;;19.85;78.47;100605.67;105393;1281;22485;-76
2022/08/13 04:00:16;;;;;;;6.80;6.10;;;;;;;19.83;78.51;100602.92;105307;1281;24465;-75
2022/08/13 04:02:42;;;;;;;8.50;5.60;;;;;;;19.83;78.50;100601.83;105134;1282;22808;-76
2022/08/13 04:05:16;;;;;;;6.70;5.60;;;;;;;19.84;78.61;100604.48;105447;1281;24422;-75
2022/08/13 04:08:03;;;;;;;5.90;4.90;;;;;;;19.87;78.56;100605.80;105320;1281;22575;-75
2022/08/13 04:10:35;;;;;;;9.70;5.30;;;;;;;19.87;78.59;100603.63;105339;1281;22709;-74
2022/08/13 04:13:03;;;;;;;9.90;5.70;;;;;;;19.91;78.48;100605.80;105292;1282;24408;-75
2022/08/13 04:15:46;;;;;;;6.50;5.00;;;;;;;19.92;78.35;100610.20;105132;1282;22563;-75
2022/08/13 04:18:13;;;;;;;8.60;5.40;;;;;;;19.91;78.17;100613.29;105174;1282;22573;-77
2022/08/13 04:20:41;;;;;;;6.20;4.60;;;;;;;19.91;78.04;100615.95;105185;1282;22567;-74
2022/08/13 04:23:16;;;;;;;5.40;4.90;;;;;;;19.95;78.21;100619.19;104959;1284;22716;-74
2022/08/13 04:25:44;;;;;;;8.00;4.90;;;;;;;19.99;77.86;100620.63;105108;1282;22562;-73
2022/08/13 04:28:16;;;;;;;5.00;4.70;;;;;;;20.01;77.79;100622.32;105312;1282;22568;-85
2022/08/13 04:30:43;;;;;;;9.00;5.20;;;;;;;20.02;77.63;100624.40;105315;1281;22537;-79
2022/08/13 04:33:14;;;;;;;7.20;4.90;;;;;;;20.08;77.47;100627.79;105501;1281;22492;-82
2022/08/13 04:35:49;;;;;;;7.30;5.00;;;;;;;20.10;77.22;100627.88;105428;1281;22560;-81
2022/08/13 04:38:23;;;;;;;7.30;4.60;;;;;;;20.14;77.32;100627.14;105145;1282;24240;-80
2022/08/13 04:40:51;;;;;;;5.70;4.20;;;;;;;20.18;77.16;100632.16;105313;1281;22567;-80
2022/08/13 04:43:21;;;;;;;6.30;4.50;;;;;;;20.18;76.69;100629.09;104940;1282;25459;-76
2022/08/13 04:45:50;;;;;;;6.00;4.40;;;;;;;20.16;76.48;100631.48;104967;1282;22563;-75
2022/08/13 04:48:17;;;;;;;7.60;4.30;;;;;;;20.19;76.40;100631.05;105036;1284;22710;-72
2022/08/13 04:50:47;;;;;;;7.10;4.20;;;;;;;20.20;76.26;100628.84;105113;1282;22553;-73
2022/08/13 04:53:27;;;;;;;5.50;4.20;;;;;;;20.23;76.31;100627.98;105068;1282;22572;-78
2022/08/13 04:55:55;;;;;;;6.40;4.80;;;;;;;20.25;76.11;100623.23;105062;1282;22689;-74
2022/08/13 04:58:39;;;;;;;6.20;4.20;;;;;;;20.29;75.92;100621.66;105110;1282;25267;-72
2022/08/13 05:01:10;;;;;;;6.00;4.50;;;;;;;20.32;75.75;100618.09;105106;1284;25260;-71
2022/08/13 05:03:57;;;;;;;6.60;3.70;;;;;;;20.36;75.77;100615.77;105050;1282;25701;-77
2022/08/13 05:06:45;;;;;;;7.60;4.10;;;;;;;20.41;75.69;100615.70;105096;1282;22563;-74
2022/08/13 05:09:18;;;;;;;8.40;4.40;;;;;;;20.46;75.71;100614.23;105009;1282;22570;-81
2022/08/13 05:11:45;;;;;;;4.80;3.80;;;;;;;20.51;75.63;100615.59;105057;1282;25493;-77
2022/08/13 05:14:31;;;;;;;9.50;4.20;;;;;;;20.55;75.41;100612.92;105034;1282;22559;-75
2022/08/13 05:17:03;;;;;;;8.70;4.40;;;;;;;20.58;75.45;100612.24;105075;1282;22544;-75
2022/08/13 05:19:32;;;;;;;8.70;4.70;;;;;;;20.60;75.25;100610.91;105213;1282;25470;-75
2022/08/13 05:22:06;;;;;;;8.20;4.30;;;;;;;20.63;75.05;100612.88;105028;1282;22536;-74
2022/08/13 05:24:43;;;;;;;8.60;4.10;;;;;;;20.67;75.08;100612.50;105206;1282;24408;-73
2022/08/13 05:27:31;;;;;;;5.70;3.90;;;;;;;20.73;75.01;100613.66;105200;1282;22602;-73
2022/08/13 05:29:59;;;;;;;5.30;3.90;;;;;;;20.79;75.03;100613.91;105004;1282;22889;-73
2022/08/13 05:32:45;;;;;;;9.00;4.80;;;;;;;20.83;74.92;100611.03;105102;1282;23936;-74
2022/08/13 05:35:16;;;;;;;7.10;4.20;;;;;;;20.86;74.63;100616.25;105140;1282;25342;-73
2022/08/13 05:38:04;;;;;;;7.30;4.40;;;;;;;20.91;74.71;100617.11;105114;1281;23954;-74
2022/08/13 05:40:46;;;;;;;6.60;4.20;;;;;;;20.96;74.31;100614.38;105162;1282;23967;-75
2022/08/13 05:43:23;;;;;;;11.80;4.20;;;;;;;21.04;74.00;100617.05;105103;1282;22544;-80
2022/08/13 05:45:57;;;;;;;4.40;3.90;;;;;;;21.07;73.95;100604.19;105104;1282;24097;-75
2022/08/13 05:48:38;;;;;;;6.90;4.20;;;;;;;21.09;73.85;100598.73;105048;1282;25265;-74
2022/08/13 05:51:08;;;;;;;4.50;3.60;;;;;;;21.10;73.66;100596.52;105067;1282;25586;-75
2022/08/13 05:53:37;;;;;;;4.70;3.80;;;;;;;21.14;73.66;100594.71;105244;1282;22572;-76
2022/08/13 05:56:18;;;;;;;4.80;3.80;;;;;;;21.20;73.67;100596.57;105117;1282;25265;-75
2022/08/13 05:58:47;;;;;;;8.70;4.10;;;;;;;21.26;73.50;100595.54;105151;1282;22544;-76
2022/08/13 06:04:03;;;;;;;4.50;3.80;;;;;;;21.30;73.17;100595.89;104987;1282;22627;-75
2022/08/13 06:06:50;;;;;;;6.90;4.40;;;;;;;21.31;73.21;100591.69;105045;1282;23675;-76
2022/08/13 06:09:18;;;;;;;5.60;4.30;;;;;;;21.31;73.11;100598.16;105125;1282;22579;-74
2022/08/13 06:11:49;;;;;;;5.10;3.90;;;;;;;21.31;73.02;100596.39;105168;1282;22568;-73
2022/08/13 06:14:36;;;;;;;7.70;4.10;;;;;;;21.31;72.85;100605.73;105094;1282;25251;-75
2022/08/13 06:17:06;;;;;;;5.40;3.80;;;;;;;21.32;72.72;100602.97;105082;1284;22560;-75
2022/08/13 06:19:43;;;;;;;6.60;4.20;;;;;;;21.33;72.71;100607.55;105344;1282;22560;-75
2022/08/13 06:22:19;;;;;;;6.90;4.10;;;;;;;21.29;72.74;100612.38;105052;1282;22617;-75
2022/08/13 06:24:47;;;;;;;6.00;3.80;;;;;;;21.27;72.83;100636.50;105149;1282;22570;-74
2022/08/13 06:27:24;;;;;;;6.10;4.20;;;;;;;21.20;72.74;100670.34;105013;1285;22556;-75
2022/08/13 06:30:14;;;;;;;7.40;4.10;;;;;;;21.12;72.64;100693.11;105045;1282;22764;-74
2022/08/13 06:33:02;;;;;;;8.40;4.40;;;;;;;21.08;72.81;100719.64;104945;1285;22550;-74
2022/08/13 06:35:58;;;;;;;11.10;4.40;;;;;;;20.97;72.48;100730.35;105022;1282;22571;-74
2022/08/13 06:38:36;;;;;;;7.70;4.40;;;;;;;20.85;72.85;100728.88;105180;1282;24386;-74
2022/08/13 06:41:08;;;;;;;4.90;4.10;;;;;;;20.79;73.12;100731.67;105148;1282;22541;-76
2022/08/13 06:43:51;;;;;;;8.90;4.60;;;;;;;20.73;73.04;100729.64;105107;1284;22626;-76
2022/08/13 06:46:28;;;;;;;10.10;5.00;;;;;;;20.69;73.31;100734.44;104674;1290;22727;-74
2022/08/13 06:49:00;;;;;;;9.10;4.50;;;;;;;20.63;73.83;100727.94;104669;1287;22636;-72
2022/08/13 06:51:30;;;;;;;9.90;5.10;;;;;;;20.52;74.19;100708.58;104535;1290;23364;-75
2022/08/13 06:54:08;;;;;;;5.80;4.50;;;;;;;20.33;74.91;100708.34;104391;1288;22652;-74
2022/08/13 06:56:56;;;;;;;6.60;4.90;;;;;;;20.18;75.56;100719.55;104414;1288;24309;-74
2022/08/13 06:59:39;;;;;;;4.60;4.10;;;;;;;20.09;76.31;100726.77;104477;1288;26532;-73
2022/08/13 07:02:28;;;;;;;4.80;4.20;;;;;;;20.00;76.86;100715.46;104586;1288;22537;-79
2022/08/13 07:04:58;;;;;;;5.10;4.50;;;;;;;19.86;77.47;100719.10;104897;1282;22887;-76
2022/08/13 07:07:26;;;;;;;6.80;4.50;;;;;;;19.79;78.08;100729.75;105097;1282;25269;-77
2022/08/13 07:09:54;;;;;;;6.60;4.50;;;;;;;19.70;78.39;100725.35;105327;1282;24336;-76
2022/08/13 07:12:24;;;;;;;6.40;4.20;;;;;;;19.69;78.97;100733.21;105377;1282;22541;-74
2022/08/13 07:14:51;;;;;;;6.20;4.70;;;;;;;19.65;79.16;100731.41;105270;1282;22547;-76
2022/08/13 07:17:28;;;;;;;7.60;4.40;;;;;;;19.58;79.43;100749.23;105256;1282;24860;-78
2022/08/13 07:19:59;;;;;;;7.70;5.00;;;;;;;19.53;80.11;100762.46;105248;1282;22705;-74
2022/08/13 07:22:34;;;;;;;6.30;5.00;;;;;;;19.57;80.40;100753.93;104792;1287;24683;-77
2022/08/13 07:25:26;;;;;;;6.20;5.50;;;;;;;19.64;80.82;100743.08;104938;1287;22584;-73
2022/08/13 07:28:19;;;;;;;10.00;5.00;;;;;;;19.68;80.92;100725.41;105043;1287;22554;-79
2022/08/13 07:31:07;;;;;;;7.00;5.00;;;;;;;19.71;80.92;100717.98;104995;1287;24281;-77
2022/08/13 07:33:42;;;;;;;6.90;5.00;;;;;;;19.74;81.04;100704.95;104889;1287;22567;-75
2022/08/13 07:36:24;;;;;;;6.10;5.60;;;;;;;19.81;81.23;100690.58;104821;1287;22612;-74
2022/08/13 07:38:52;;;;;;;6.20;5.30;;;;;;;19.85;81.23;100673.77;105262;1287;25281;-75
2022/08/13 07:41:20;;;;;;;7.10;4.90;;;;;;;19.93;81.35;100660.04;105469;1284;22544;-75
2022/08/13 07:43:47;;;;;;;5.00;4.30;;;;;;;20.01;81.21;100646.62;105551;1284;22551;-76
2022/08/13 07:46:42;;;;;;;8.30;5.30;;;;;;;20.15;81.37;100640.15;105519;1282;22711;-83
2022/08/13 07:49:22;;;;;;;5.40;4.80;;;;;;;20.30;81.26;100635.16;105434;1285;25397;-76
2022/08/13 07:52:07;;;;;;;5.50;4.90;;;;;;;20.44;81.31;100628.81;105578;1285;25435;-75
2022/08/13 07:54:37;;;;;;;6.20;4.90;;;;;;;20.57;81.28;100628.75;104881;1290;25279;-74
2022/08/13 07:57:04;;;;;;;4.50;3.90;;;;;;;20.68;81.15;100627.16;104503;1290;22621;-76
2022/08/13 07:59:31;;;;;;;4.20;3.80;;;;;;;20.77;80.92;100621.19;104327;1290;24284;-76
2022/08/13 08:02:18;;;;;;;5.40;4.10;;;;;;;20.89;80.74;100618.64;104511;1290;22573;-79
2022/08/13 08:04:50;;;;;;;5.80;4.70;;;;;;;20.97;80.25;100621.89;104814;1290;25343;-77
2022/08/13 08:07:22;;;;;;;5.20;4.70;;;;;;;21.01;80.23;100616.99;104463;1291;25387;-76
2022/08/13 08:09:54;;;;;;;4.70;4.20;;;;;;;21.10;80.37;100613.51;104749;1290;22554;-81
2022/08/13 08:12:35;;;;;;;4.60;4.20;;;;;;;21.20;80.46;100602.83;104593;1287;22546;-76
2022/08/13 08:15:22;;;;;;;6.50;3.80;;;;;;;21.34;80.07;100593.15;105188;1284;25258;-78
2022/08/13 08:18:09;;;;;;;6.20;4.10;;;;;;;21.48;79.73;100593.34;105364;1282;25382;-76
2022/08/13 08:21:08;;;;;;;4.30;3.90;;;;;;;21.58;79.62;100591.95;105434;1285;22573;-75
2022/08/13 08:23:58;;;;;;;5.20;4.70;;;;;;;21.69;79.89;100590.13;105478;1284;22594;-78
2022/08/13 08:26:31;;;;;;;5.50;4.90;;;;;;;21.73;79.86;100590.44;105625;1283;22501;-75
2022/08/13 08:29:04;;;;;;;5.80;4.70;;;;;;;21.77;79.82;100589.37;105693;1284;24252;-75
2022/08/13 08:31:39;;;;;;;5.10;4.50;;;;;;;21.84;79.76;100587.94;105334;1282;22640;-76
2022/08/13 08:34:27;;;;;;;6.00;4.60;;;;;;;21.91;79.83;100584.52;105346;1282;22775;-77
2022/08/13 08:36:55;;;;;;;6.90;5.20;;;;;;;21.94;79.49;100586.50;105488;1282;22573;-77
2022/08/13 08:45:00;;;;;;;5.50;5.10;;;;;;;22.08;79.32;100570.17;105245;1282;22874;-77
2022/08/13 08:47:33;;;;;;;6.00;5.20;;;;;;;22.18;79.61;100562.63;105260;1284;25530;-79
2022/08/13 08:50:24;;;;;;;5.60;5.00;;;;;;;22.34;79.48;100556.20;105066;1282;25270;-76
2022/08/13 08:56:05;;;;;;;6.70;6.00;;;;;;;22.55;79.02;100534.74;105337;1284;23951;-79
2022/08/13 08:58:39;;;;;;;6.80;5.00;;;;;;;22.65;78.79;100529.88;105397;1284;22562;-79
2022/08/13 09:01:08;;;;;;;6.30;5.30;;;;;;;22.77;78.52;100525.95;105266;1284;23884;-75
2022/08/13 09:03:42;;;;;;;7.70;6.20;;;;;;;22.88;77.99;100522.11;105283;1284;25349;-84
2022/08/13 09:06:25;;;;;;;7.40;5.70;;;;;;;22.96;77.81;100511.94;105227;1284;22556;-77
2022/08/13 09:09:13;;;;;;;8.00;5.90;;;;;;;23.03;77.03;100503.81;105347;1282;22569;-78
2022/08/13 09:11:49;;;;;;;7.70;5.30;;;;;;;23.16;77.14;100503.42;105500;1282;25275;-74
2022/08/13 09:14:30;;;;;;;13.00;6.00;;;;;;;23.30;76.58;100495.92;105400;1282;24407;-76
2022/08/13 09:17:04;;;;;;;5.60;5.10;;;;;;;23.34;76.33;100492.98;105310;1284;25269;-76
2022/08/13 09:19:40;;;;;;;6.00;5.10;;;;;;;23.37;76.03;100493.52;105249;1284;22560;-73
2022/08/13 09:22:24;;;;;;;6.20;4.80;;;;;;;23.41;75.76;100494.59;105283;1282;22581;-76
2022/08/13 09:24:56;;;;;;;5.10;4.70;;;;;;;23.41;75.48;100498.73;105503;1282;22594;-75
2022/08/13 09:27:28;;;;;;;7.70;5.70;;;;;;;23.44;75.36;100502.48;105535;1284;25444;-76
2022/08/13 09:30:16;;;;;;;5.90;5.30;;;;;;;23.52;74.96;100507.94;105311;1284;22725;-77
2022/08/13 09:32:58;;;;;;;5.70;5.00;;;;;;;23.59;74.99;100514.15;105319;1284;25287;-75
2022/08/13 09:35:28;;;;;;;5.70;4.20;;;;;;;23.75;75.12;100520.54;105612;1284;25057;-76
2022/08/13 09:38:06;;;;;;;5.90;4.30;;;;;;;23.93;75.06;100520.12;105518;1282;22556;-79
2022/08/13 09:40:44;;;;;;;5.60;4.90;;;;;;;24.17;74.71;100523.46;105440;1284;25002;-76
2022/08/13 09:43:43;;;;;;;6.90;4.10;;;;;;;24.35;74.45;100525.44;105419;1282;22560;-76
2022/08/13 09:46:17;;;;;;;6.60;4.50;;;;;;;24.43;73.77;100523.08;105370;1282;24780;-75
2022/08/13 09:48:51;;;;;;;4.70;4.00;;;;;;;24.67;73.78;100527.30;105595;1284;26648;-75
2022/08/13 09:51:21;;;;;;;9.60;5.20;;;;;;;24.97;73.50;100523.38;105424;1284;22701;-77
2022/08/13 09:54:09;;;;;;;7.20;4.10;;;;;;;25.38;73.28;100522.93;105311;1282;23965;-75
2022/08/13 09:56:39;;;;;;;6.80;4.30;;;;;;;25.65;72.53;100519.06;105286;1282;25442;-78
2022/08/13 09:59:10;;;;;;;5.60;4.30;;;;;;;25.87;71.38;100522.42;105386;1284;22559;-76
2022/08/13 10:01:49;;;;;;;5.40;4.20;;;;;;;25.98;70.49;100527.76;105441;1282;22573;-73
2022/08/13 10:04:24;;;;;;;;;;;;;;;26.01;69.94;100529.70;105347;1284;22558;-78
2022/08/13 10:06:50;;;;;;;4.60;4.10;;;;;;;25.98;69.73;100533.02;105353;1282;22547;-74
2022/08/13 10:09:27;;;;;;;7.30;4.10;;;;;;;25.90;69.40;100534.64;105119;1282;22531;-76
2022/08/13 10:12:05;;;;;;;5.80;4.10;;;;;;;25.87;69.17;100541.39;105263;1284;25260;-76
2022/08/13 10:14:49;;;;;;;7.60;4.30;;;;;;;25.81;68.83;100546.26;105404;1282;22607;-75
2022/08/13 10:17:25;;;;;;;7.80;4.10;;;;;;;25.77;68.67;100554.54;105394;1282;22709;-75
2022/08/13 10:20:15;;;;;;;4.70;3.60;;;;;;;25.80;68.27;100557.55;105386;1282;24288;-75
2022/08/13 10:22:43;;;;;;;8.10;3.50;;;;;;;25.82;67.94;100558.31;105294;1284;25366;-79
2022/08/13 10:25:11;;;;;;;7.80;4.10;;;;;;;25.82;67.82;100555.27;105308;1284;25442;-75
2022/08/13 10:27:39;;;;;;;7.10;3.90;;;;;;;25.86;67.92;100561.27;105482;1282;25316;-75
2022/08/13 10:30:22;;;;;;;4.50;3.90;;;;;;;25.93;67.90;100558.76;105238;1282;22598;-76
2022/08/13 10:33:10;;;;;;;5.00;4.10;;;;;;;26.04;67.65;100556.73;105343;1283;23643;-75
2022/08/13 10:35:37;;;;;;;4.50;4.10;;;;;;;26.15;67.55;100558.48;105295;1282;22559;-78
2022/08/13 10:38:14;;;;;;;4.00;3.60;;;;;;;26.25;67.00;100554.31;105221;1282;22725;-78
2022/08/13 10:40:41;;;;;;;4.50;3.40;;;;;;;26.37;66.68;100552.43;105266;1282;24255;-78
2022/08/13 10:43:11;;;;;;;3.90;3.50;;;;;;;26.51;66.01;100550.87;105256;1282;22797;-76
2022/08/13 10:45:56;;;;;;;5.70;4.10;;;;;;;26.69;65.39;100549.16;105295;1282;25385;-76
2022/08/13 10:48:39;;;;;;;4.80;3.90;;;;;;;26.97;64.48;100540.80;104983;1282;25359;-77
2022/08/13 10:51:06;;;;;;;4.00;3.40;;;;;;;27.24;64.04;100535.35;105214;1282;22551;-77
2022/08/13 10:56:19;;;;;;;3.90;3.50;;;;;;;27.93;63.13;100531.45;104920;1284;22569;-78
2022/08/13 10:59:08;;;;;;;4.90;3.50;;;;;;;28.30;61.88;100527.42;103259;1303;545120;-81
2022/08/13 11:01:41;;;;;;;3.90;3.50;;;;;;;28.58;61.00;100522.23;105395;1284;22622;-77
2022/08/13 11:04:08;;;;;;;4.50;3.20;;;;;;;28.82;60.67;100524.77;105083;1284;22657;-78
2022/08/13 11:06:37;;;;;;;3.70;3.40;;;;;;;29.14;60.35;100518.48;105597;1281;22620;-79
2022/08/13 11:09:07;;;;;;;3.70;3.30;;;;;;;29.49;58.61;100516.55;105649;1281;22564;-74
2022/08/13 11:11:55;;;;;;;6.40;3.30;;;;;;;29.76;57.65;100513.90;104816;1281;1257199;-73
2022/08/13 11:14:29;;;;;;;4.20;3.60;;;;;;;29.77;56.51;100509.06;105613;1278;25303;-75
2022/08/13 11:17:04;;;;;;;5.50;3.70;;;;;;;29.74;56.09;100500.98;105625;1278;22631;-75
2022/08/13 11:19:48;;;;;;;6.80;3.60;;;;;;;29.66;55.51;100496.42;105587;1277;22537;-74
2022/08/13 11:22:20;;;;;;;4.20;3.50;;;;;;;29.62;55.67;100494.01;105888;1277;24259;-75
2022/08/13 11:24:59;;;;;;;6.60;3.90;;;;;;;29.75;55.55;100492.53;105908;1278;25346;-75
2022/08/13 11:27:44;;;;;;;3.20;2.90;;;;;;;29.77;54.45;100489.83;105573;1278;22537;-75
2022/08/13 11:30:18;;;;;;;4.00;3.20;;;;;;;29.65;54.66;100488.34;105661;1278;23062;-75
2022/08/13 11:33:04;;;;;;;4.30;3.80;;;;;;;29.61;54.67;100486.70;105827;1278;25207;-75
2022/08/13 11:35:38;;;;;;;3.70;3.30;;;;;;;29.50;54.09;100490.73;105811;1278;22556;-75
2022/08/13 11:38:11;;;;;;;3.90;3.20;;;;;;;29.35;54.08;100498.56;105796;1281;22553;-75
2022/08/13 11:40:55;;;;;;;3.60;3.40;;;;;;;29.43;54.19;100493.99;106289;1271;22978;-77
2022/08/13 11:43:31;;;;;;;4.80;3.80;;;;;;;29.64;53.62;100494.45;106266;1274;25273;-76
2022/08/13 11:46:18;;;;;;;;;;;;;;;29.76;52.94;100493.02;106280;1272;22665;-75
2022/08/13 11:48:49;;;;;;;5.30;3.80;;;;;;;29.63;52.82;100487.05;106270;1271;24252;-77
2022/08/13 11:51:34;;;;;;;4.90;3.90;;;;;;;29.53;51.98;100489.86;106368;1271;22621;-75
2022/08/13 11:54:19;;;;;;;5.10;3.80;;;;;;;29.44;52.03;100490.34;106325;1271;22546;-75
2022/08/13 11:57:06;;;;;;;4.60;3.60;;;;;;;29.28;52.05;100490.06;106345;1271;24883;-78
2022/08/13 11:59:39;;;;;;;3.50;3.20;;;;;;;29.07;52.54;100493.86;106230;1271;22529;-76
2022/08/13 12:02:12;;;;;;;3.80;3.50;;;;;;;28.89;53.16;100495.86;106445;1271;25242;-75
2022/08/13 12:04:44;;;;;;;4.10;3.60;;;;;;;28.75;53.70;100496.36;106366;1271;25232;-75
2022/08/13 12:07:18;;;;;;;5.00;4.40;;;;;;;28.56;53.24;100497.06;106326;1271;22545;-75
2022/08/13 12:09:45;;;;;;;4.70;4.20;;;;;;;28.38;53.65;100499.92;106318;1271;25301;-75
2022/08/13 12:12:16;;;;;;;5.50;3.90;;;;;;;28.21;54.21;100502.53;106390;1271;25373;-77
2022/08/13 12:14:50;;;;;;;6.30;3.90;;;;;;;28.05;54.58;100500.58;106345;1271;22566;-75
2022/08/13 12:17:19;;;;;;;7.50;4.20;;;;;;;27.92;54.75;100499.64;106235;1271;22567;-76
2022/08/13 12:20:08;;;;;;;5.10;4.40;;;;;;;27.82;55.26;100495.38;106364;1271;22707;-75